createdAt,value
2022-08-17T00:02:26.100Z,13.57
2022-08-17T00:04:54.036Z,15.18
2022-08-17T00:07:21.326Z,16.27
2022-08-17T00:09:48.569Z,15.98
2022-08-17T00:12:41.674Z,15.77
2022-08-17T00:15:04.570Z,14.90
2022-08-17T00:17:31.813Z,15.75
2022-08-17T00:19:58.938Z,15.05
2022-08-17T00:22:34.522Z,14.73
2022-08-17T00:25:03.717Z,16.42
2022-08-17T00:27:30.923Z,15.50
2022-08-17T00:29:58.087Z,16.40
2022-08-17T00:33:13.569Z,14.98
2022-08-17T00:35:12.915Z,16.15
2022-08-17T00:37:40.255Z,15.80
2022-08-17T00:40:08.338Z,15.10
2022-08-17T00:42:35.580Z,15.55
2022-08-17T00:45:04.549Z,15.48
2022-08-17T00:47:31.757Z,14.57
2022-08-17T00:49:58.997Z,14.63
2022-08-17T00:52:28.138Z,15.50
2022-08-17T00:54:55.379Z,14.13
2022-08-17T00:57:24.619Z,14.65
2022-08-17T01:00:01.813Z,13.75
2022-08-17T01:02:34.892Z,14.45
2022-08-17T01:05:10.096Z,15.07
2022-08-17T01:07:37.919Z,14.70
2022-08-17T01:10:05.788Z,15.07
2022-08-17T01:12:34.684Z,15.75
2022-08-17T01:15:01.837Z,14.98
2022-08-17T01:17:28.997Z,14.02
2022-08-17T01:19:56.618Z,14.10
2022-08-17T01:22:24.438Z,14.77
2022-08-17T01:24:53.655Z,14.95
2022-08-17T01:27:21.149Z,14.38
2022-08-17T01:29:50.232Z,13.75
2022-08-17T01:32:17.966Z,14.60
2022-08-17T01:34:50.578Z,13.35
2022-08-17T01:37:18.177Z,14.05
2022-08-17T01:39:48.234Z,13.45
2022-08-17T01:42:23.902Z,14.70
2022-08-17T01:44:51.979Z,14.00
2022-08-17T01:47:19.250Z,13.18
2022-08-17T01:49:46.704Z,13.57
2022-08-17T01:52:13.958Z,14.07
2022-08-17T01:54:41.609Z,14.20
2022-08-17T01:57:08.871Z,13.45
2022-08-17T01:59:36.545Z,15.85
2022-08-17T02:02:04.815Z,17.02
2022-08-17T02:04:32.243Z,16.70
2022-08-17T02:06:59.465Z,19.67
2022-08-17T02:09:29.769Z,22.58
2022-08-17T02:11:57.603Z,22.77
2022-08-17T02:14:25.190Z,27.27
2022-08-17T02:16:52.510Z,28.30
2022-08-17T02:19:19.742Z,29.98
2022-08-17T02:21:47.513Z,28.83
2022-08-17T02:24:16.830Z,27.17
2022-08-17T02:26:44.137Z,28.45
2022-08-17T02:29:12.135Z,29.40
2022-08-17T02:31:39.272Z,27.38
2022-08-17T02:34:06.461Z,27.10
2022-08-17T02:36:34.297Z,26.00
2022-08-17T02:39:02.536Z,27.55
2022-08-17T02:41:29.775Z,26.15
2022-08-17T02:43:56.954Z,25.23
2022-08-17T02:46:24.084Z,23.80
2022-08-17T02:48:51.295Z,22.88
2022-08-17T02:51:18.546Z,22.20
2022-08-17T02:53:46.770Z,22.40
2022-08-17T02:56:14.108Z,23.08
2022-08-17T02:58:41.339Z,22.05
2022-08-17T03:01:09.132Z,20.58
2022-08-17T03:03:36.629Z,20.55
2022-08-17T03:06:03.960Z,20.70
2022-08-17T03:08:31.136Z,36.50
2022-08-17T03:10:58.280Z,33.05
2022-08-17T03:13:25.526Z,39.83
2022-08-17T03:15:52.687Z,31.38
2022-08-17T03:18:24.638Z,30.15
2022-08-17T03:20:53.638Z,29.15
2022-08-17T03:23:24.232Z,27.50
2022-08-17T03:25:52.959Z,26.13
2022-08-17T03:28:20.988Z,26.55
2022-08-17T03:30:48.210Z,25.50
2022-08-17T03:33:16.266Z,23.85
2022-08-17T03:35:43.547Z,23.92
2022-08-17T03:38:11.023Z,23.05
2022-08-17T03:40:57.855Z,20.67
2022-08-17T03:43:25.494Z,20.85
2022-08-17T03:46:34.332Z,20.40
2022-08-17T03:49:17.275Z,19.65
2022-08-17T03:52:03.165Z,20.10
2022-08-17T03:54:49.206Z,19.67
2022-08-17T03:57:16.701Z,18.92
2022-08-17T03:59:44.901Z,19.33
2022-08-17T04:02:14.361Z,19.42
2022-08-17T04:04:41.625Z,18.80
2022-08-17T04:07:08.965Z,19.75
2022-08-17T04:09:36.643Z,18.02
2022-08-17T04:12:04.713Z,18.83
2022-08-17T04:14:46.525Z,18.50
2022-08-17T04:17:19.738Z,20.10
2022-08-17T04:19:47.305Z,20.15
2022-08-17T04:22:31.045Z,21.98
2022-08-17T04:25:00.707Z,20.30
2022-08-17T04:27:27.900Z,20.60
2022-08-17T04:29:56.091Z,20.38
2022-08-17T04:32:59.461Z,22.05
2022-08-17T04:35:11.317Z,21.38
2022-08-17T04:37:38.607Z,21.75
2022-08-17T04:40:25.917Z,24.95
2022-08-17T04:43:04.658Z,25.27
2022-08-17T04:45:32.300Z,28.02
2022-08-17T04:48:00.148Z,28.98
2022-08-17T04:50:27.626Z,28.38
2022-08-17T04:52:55.196Z,27.95
2022-08-17T04:55:22.601Z,24.05
2022-08-17T04:57:49.921Z,23.73
2022-08-17T05:00:17.173Z,23.77
2022-08-17T05:02:50.301Z,23.23
2022-08-17T05:05:25.343Z,26.50
2022-08-17T05:07:54.448Z,23.75
2022-08-17T05:10:24.821Z,24.73
2022-08-17T05:13:02.030Z,27.73
2022-08-17T05:15:29.353Z,32.28
2022-08-17T05:18:00.460Z,32.55
2022-08-17T05:20:27.802Z,33.20
2022-08-17T05:22:56.851Z,33.55
2022-08-17T05:25:25.684Z,29.17
2022-08-17T05:27:53.329Z,28.23
2022-08-17T05:30:20.604Z,28.65
2022-08-17T05:32:52.078Z,28.05
2022-08-17T05:35:19.385Z,26.90
2022-08-17T05:37:46.534Z,25.52
2022-08-17T05:40:14.046Z,28.08
2022-08-17T05:42:41.305Z,28.50
2022-08-17T05:45:08.654Z,26.13
2022-08-17T05:47:35.863Z,25.73
2022-08-17T05:50:03.075Z,24.17
2022-08-17T05:52:37.074Z,22.80
2022-08-17T05:55:19.680Z,24.10
2022-08-17T05:57:53.661Z,20.90
2022-08-17T06:00:29.987Z,21.38
2022-08-17T06:03:00.361Z,21.45
2022-08-17T06:05:30.442Z,21.33
2022-08-17T06:08:09.900Z,21.10
2022-08-17T06:10:40.209Z,19.25
2022-08-17T06:13:22.735Z,19.17
2022-08-17T06:15:56.104Z,18.02
2022-08-17T06:18:24.116Z,17.70
2022-08-17T06:20:52.871Z,17.02
2022-08-17T06:23:40.310Z,17.17
2022-08-17T06:26:20.583Z,17.50
2022-08-17T06:29:03.918Z,17.10
2022-08-17T06:31:36.765Z,16.50
2022-08-17T06:34:04.523Z,16.13
2022-08-17T06:36:34.413Z,15.52
2022-08-17T06:39:04.573Z,16.05
2022-08-17T06:41:43.538Z,16.30
2022-08-17T06:44:10.771Z,15.80
2022-08-17T06:46:39.249Z,15.95
2022-08-17T06:49:07.891Z,14.10
2022-08-17T06:51:42.336Z,14.23
2022-08-17T06:54:15.675Z,15.60
2022-08-17T06:56:53.169Z,13.13
2022-08-17T06:59:23.211Z,14.00
2022-08-17T07:01:50.460Z,14.57
2022-08-17T07:04:21.571Z,13.98
2022-08-17T07:06:52.492Z,14.43
2022-08-17T07:09:23.320Z,13.13
2022-08-17T07:11:54.721Z,12.52
2022-08-17T07:14:28.414Z,13.15
2022-08-17T07:16:56.316Z,13.10
2022-08-17T07:19:26.182Z,13.32
2022-08-17T07:21:58.469Z,12.43
2022-08-17T07:24:30.293Z,12.48
2022-08-17T07:27:33.129Z,12.35
2022-08-17T07:30:19.307Z,12.95
2022-08-17T07:33:17.900Z,12.60
2022-08-17T07:35:48.105Z,11.77
2022-08-17T07:38:25.682Z,11.82
2022-08-17T07:41:03.416Z,12.32
2022-08-17T07:43:33.533Z,11.63
2022-08-17T07:46:31.417Z,12.00
2022-08-17T07:49:16.562Z,12.32
2022-08-17T07:51:43.906Z,12.25
2022-08-17T07:54:22.584Z,13.20
2022-08-17T07:56:57.029Z,13.32
2022-08-17T07:59:24.173Z,11.05
2022-08-17T08:01:58.061Z,11.80
2022-08-17T08:04:50.032Z,11.60
2022-08-17T08:07:17.498Z,11.63
2022-08-17T08:09:45.990Z,11.52
2022-08-17T08:12:22.250Z,11.55
2022-08-17T08:14:59.835Z,11.38
2022-08-17T08:17:30.617Z,10.85
2022-08-17T08:19:58.539Z,10.95
2022-08-17T08:22:29.503Z,10.88
2022-08-17T08:25:00.755Z,12.18
2022-08-17T08:27:30.934Z,11.52
2022-08-17T08:30:04.801Z,11.27
2022-08-17T08:32:48.037Z,11.43
2022-08-17T08:35:34.379Z,12.13
2022-08-17T08:38:09.457Z,11.82
2022-08-17T08:40:46.017Z,12.95
2022-08-17T08:43:22.633Z,12.38
2022-08-17T08:45:52.632Z,12.88
2022-08-17T08:48:56.422Z,13.48
2022-08-17T08:51:28.198Z,13.00
2022-08-17T08:53:58.918Z,12.18
2022-08-17T08:57:04.966Z,11.73
2022-08-17T08:59:35.530Z,11.93
2022-08-17T09:02:18.574Z,11.40
2022-08-17T09:05:20.352Z,11.27
2022-08-17T09:07:59.626Z,12.07
2022-08-17T09:10:29.356Z,11.27
2022-08-17T09:13:09.531Z,11.30
2022-08-17T09:15:41.402Z,14.35
2022-08-17T09:19:01.795Z,12.57
2022-08-17T09:21:07.744Z,12.60
2022-08-17T09:23:34.980Z,11.88
2022-08-17T09:26:25.401Z,12.40
2022-08-17T09:28:53.488Z,11.18
2022-08-17T09:31:22.413Z,11.05
2022-08-17T09:33:50.427Z,13.02
2022-08-17T09:36:28.802Z,11.85
2022-08-17T09:39:09.684Z,11.43
2022-08-17T09:41:39.973Z,10.90
2022-08-17T09:44:27.050Z,11.00
2022-08-17T09:46:55.304Z,10.82
2022-08-17T09:49:25.265Z,10.05
2022-08-17T09:51:53.447Z,10.25
2022-08-17T09:54:40.488Z,10.10
2022-08-17T09:57:30.354Z,12.93
2022-08-17T09:59:58.539Z,47.78
2022-08-17T10:02:25.742Z,14.27
2022-08-17T10:05:07.228Z,12.48
2022-08-17T10:07:40.773Z,10.50
2022-08-17T10:10:20.955Z,9.68
2022-08-17T10:12:53.263Z,10.77
2022-08-17T10:15:23.659Z,8.65
2022-08-17T10:18:09.027Z,7.70
2022-08-17T10:21:14.945Z,7.50
2022-08-17T10:24:00.726Z,7.32
2022-08-17T10:26:28.155Z,6.03
2022-08-17T10:29:17.686Z,6.78
2022-08-17T10:31:52.919Z,6.53
2022-08-17T10:34:38.895Z,6.80
2022-08-17T10:37:20.998Z,6.72
2022-08-17T10:39:52.910Z,6.93
2022-08-17T10:42:30.393Z,7.18
2022-08-17T10:45:02.061Z,8.40
2022-08-17T10:48:05.262Z,7.72
2022-08-17T10:50:42.789Z,8.07
2022-08-17T10:53:10.013Z,7.85
2022-08-17T10:55:39.159Z,7.63
2022-08-17T10:58:21.913Z,7.28
2022-08-17T11:00:55.182Z,7.00
2022-08-17T11:03:23.659Z,7.13
2022-08-17T11:06:03.039Z,7.53
2022-08-17T11:08:39.544Z,7.20
2022-08-17T11:11:14.683Z,7.10
2022-08-17T11:13:41.931Z,7.20
2022-08-17T11:16:27.883Z,6.68
2022-08-17T11:19:08.678Z,7.15
2022-08-17T11:22:08.210Z,7.13
2022-08-17T11:24:36.412Z,6.82
2022-08-17T11:27:20.731Z,7.68
2022-08-17T11:30:01.517Z,7.50
2022-08-17T11:32:38.556Z,7.32
2022-08-17T11:35:21.199Z,7.20
2022-08-17T11:37:48.450Z,7.10
2022-08-17T11:40:15.716Z,6.78
2022-08-17T11:43:01.718Z,6.80
2022-08-17T11:45:38.125Z,6.72
2022-08-17T11:48:28.856Z,6.78
2022-08-17T11:51:19.470Z,6.20
2022-08-17T11:53:46.924Z,6.57
2022-08-17T11:56:32.750Z,7.25
2022-08-17T11:59:00.860Z,7.00
2022-08-17T12:01:29.358Z,6.13
2022-08-17T12:04:03.718Z,6.68
2022-08-17T12:06:34.342Z,6.68
2022-08-17T12:09:13.888Z,7.00
2022-08-17T12:11:56.359Z,6.95
2022-08-17T12:14:45.464Z,6.43
2022-08-17T12:17:20.832Z,6.57
2022-08-17T12:20:23.470Z,6.47
2022-08-17T12:22:54.725Z,6.80
2022-08-17T12:25:24.247Z,7.57
2022-08-17T12:28:06.852Z,7.20
2022-08-17T12:30:34.643Z,7.95
2022-08-17T12:33:02.581Z,7.07
2022-08-17T12:35:35.345Z,7.03
2022-08-17T12:38:02.911Z,6.57
2022-08-17T12:40:31.599Z,6.68
2022-08-17T12:43:01.923Z,7.70
2022-08-17T12:45:30.215Z,7.28
2022-08-17T12:48:07.782Z,6.90
2022-08-17T12:50:35.829Z,6.72
2022-08-17T12:53:03.081Z,6.53
2022-08-17T12:55:32.689Z,7.47
2022-08-17T12:58:02.006Z,7.15
2022-08-17T13:00:32.614Z,6.78
2022-08-17T13:03:00.794Z,6.75
2022-08-17T13:05:29.462Z,7.20
2022-08-17T13:07:57.476Z,6.82
2022-08-17T13:10:30.174Z,7.45
2022-08-17T13:13:04.842Z,7.18
2022-08-17T13:15:44.709Z,7.57
2022-08-17T13:18:31.238Z,7.68
2022-08-17T13:20:58.652Z,9.35
2022-08-17T13:23:26.356Z,9.43
2022-08-17T13:25:56.838Z,8.30
2022-08-17T13:28:35.636Z,8.15
2022-08-17T13:31:24.171Z,7.75
2022-08-17T13:33:51.423Z,7.28
2022-08-17T13:36:30.314Z,7.60
2022-08-17T13:39:13.978Z,7.38
2022-08-17T13:41:41.458Z,7.68
2022-08-17T13:44:28.204Z,8.15
2022-08-17T13:46:56.983Z,7.93
2022-08-17T13:49:24.658Z,8.00
2022-08-17T13:52:10.630Z,7.28
2022-08-17T13:54:38.207Z,7.88
2022-08-17T13:57:06.207Z,7.65
2022-08-17T13:59:55.196Z,9.02
2022-08-17T14:02:25.911Z,8.20
2022-08-17T14:04:55.941Z,7.63
2022-08-17T14:07:33.779Z,7.95
2022-08-17T14:10:09.155Z,8.10
2022-08-17T14:12:36.669Z,8.32
2022-08-17T14:15:04.002Z,8.70
2022-08-17T14:17:36.361Z,8.93
2022-08-17T14:20:07.089Z,9.20
2022-08-17T14:22:34.900Z,8.73
2022-08-17T14:25:02.132Z,8.43
2022-08-17T14:27:31.876Z,8.80
2022-08-17T14:29:59.211Z,8.68
2022-08-17T14:32:27.574Z,8.23
2022-08-17T14:34:56.697Z,8.30
2022-08-17T14:37:26.324Z,8.05
2022-08-17T14:39:57.018Z,9.02
2022-08-17T14:42:24.873Z,8.32
2022-08-17T14:44:52.641Z,8.48
2022-08-17T14:47:19.959Z,8.57
2022-08-17T14:49:48.308Z,8.70
2022-08-17T14:52:16.286Z,8.52
2022-08-17T14:54:45.806Z,9.77
2022-08-17T14:57:33.059Z,9.40
2022-08-17T15:00:00.581Z,9.07
2022-08-17T15:02:30.115Z,8.80
2022-08-17T15:05:01.851Z,8.90
2022-08-17T15:07:30.752Z,8.85
2022-08-17T15:09:58.838Z,9.00
2022-08-17T15:12:32.398Z,9.23
2022-08-17T15:15:01.146Z,8.95
2022-08-17T15:17:44.180Z,8.75
2022-08-17T15:20:15.024Z,8.93
2022-08-17T15:22:42.660Z,19.42
2022-08-17T15:25:10.544Z,54.22
2022-08-17T15:27:37.748Z,11.75
2022-08-17T15:30:05.347Z,9.75
2022-08-17T15:32:35.190Z,9.48
2022-08-17T15:35:02.709Z,9.18
2022-08-17T15:37:31.911Z,10.88
2022-08-17T15:40:01.222Z,11.00
2022-08-17T15:42:29.306Z,10.25
2022-08-17T15:44:56.599Z,9.65
2022-08-17T15:47:23.923Z,10.25
2022-08-17T15:49:51.113Z,10.38
2022-08-17T15:52:21.082Z,9.70
2022-08-17T15:54:55.051Z,11.15
2022-08-17T15:57:24.066Z,13.15
2022-08-17T15:59:55.201Z,13.45
2022-08-17T16:03:46.006Z,13.68
2022-08-17T16:05:21.909Z,14.10
2022-08-17T16:07:51.557Z,14.00
2022-08-17T16:10:19.518Z,14.30
2022-08-17T16:12:47.271Z,14.35
2022-08-17T16:15:14.664Z,15.02
2022-08-17T16:17:41.893Z,14.70
2022-08-17T16:20:20.495Z,14.57
2022-08-17T16:22:48.490Z,15.27
2022-08-17T16:25:18.012Z,15.20
2022-08-17T16:27:45.308Z,15.65
2022-08-17T16:30:17.415Z,15.73
2022-08-17T16:32:45.074Z,15.32
2022-08-17T16:35:14.310Z,15.73
2022-08-17T16:37:41.882Z,15.50
2022-08-17T16:40:13.057Z,16.40
2022-08-17T16:42:40.604Z,17.05
2022-08-17T16:45:09.840Z,17.52
2022-08-17T16:47:37.082Z,17.55
2022-08-17T16:50:05.436Z,18.17
2022-08-17T16:52:33.545Z,19.20
2022-08-17T16:55:01.569Z,18.42
2022-08-17T16:57:29.781Z,39.90
2022-08-17T16:59:57.146Z,21.00
2022-08-17T17:02:46.786Z,20.33
2022-08-17T17:05:14.118Z,24.67
2022-08-17T17:07:41.334Z,26.02
2022-08-17T17:10:09.883Z,20.30
2022-08-17T17:13:01.131Z,19.48
2022-08-17T17:15:27.899Z,19.30
2022-08-17T17:17:55.065Z,21.40
2022-08-17T17:20:28.723Z,22.00
2022-08-17T17:23:09.202Z,20.50
2022-08-17T17:25:41.615Z,21.65
2022-08-17T17:28:25.387Z,19.75
2022-08-17T17:30:58.455Z,20.05
2022-08-17T17:33:35.408Z,21.85
2022-08-17T17:36:07.663Z,21.13
2022-08-17T17:38:46.386Z,21.80
2022-08-17T17:41:14.591Z,21.27
2022-08-17T17:43:41.743Z,22.42
2022-08-17T17:46:27.837Z,21.50
2022-08-17T17:48:56.823Z,21.80
2022-08-17T17:51:45.531Z,22.38
2022-08-17T17:54:32.386Z,22.10
2022-08-17T17:57:02.598Z,22.15
2022-08-17T17:59:48.508Z,22.77
2022-08-17T18:02:51.906Z,22.52
2022-08-17T18:05:31.760Z,20.92
2022-08-17T18:08:10.837Z,19.90
2022-08-17T18:10:38.309Z,19.42
2022-08-17T18:13:10.790Z,21.05
2022-08-17T18:15:41.297Z,20.05
2022-08-17T18:18:08.920Z,19.63
2022-08-17T18:20:43.378Z,19.30
2022-08-17T18:23:25.568Z,18.90
2022-08-17T18:25:55.557Z,20.08
2022-08-17T18:28:27.385Z,19.73
2022-08-17T18:31:07.026Z,21.42
2022-08-17T18:33:34.307Z,20.85
2022-08-17T18:36:01.696Z,20.85
2022-08-17T18:38:30.679Z,19.17
2022-08-17T18:41:17.571Z,19.50
2022-08-17T18:43:53.735Z,20.00
2022-08-17T18:46:29.712Z,20.27
2022-08-17T18:49:01.608Z,20.20
2022-08-17T18:51:41.043Z,21.35
2022-08-17T18:54:14.509Z,22.05
2022-08-17T18:56:42.952Z,22.83
2022-08-17T18:59:10.245Z,20.77
2022-08-17T19:01:41.687Z,22.08
2022-08-17T19:04:32.783Z,23.30
2022-08-17T19:07:04.795Z,24.55
2022-08-17T19:09:33.436Z,24.52
2022-08-17T19:12:02.066Z,25.85
2022-08-17T19:14:29.377Z,26.02
2022-08-17T19:16:59.013Z,25.65
2022-08-17T19:19:38.629Z,24.05
2022-08-17T19:22:11.883Z,24.77
2022-08-17T19:24:47.438Z,25.20
2022-08-17T19:27:17.914Z,24.42
2022-08-17T19:29:47.871Z,24.15
2022-08-17T19:32:16.347Z,24.50
2022-08-17T19:34:44.590Z,22.42
2022-08-17T19:37:17.676Z,23.25
2022-08-17T19:39:48.039Z,23.40
2022-08-17T19:42:21.535Z,22.98
2022-08-17T19:44:51.462Z,23.25
2022-08-17T19:47:43.176Z,22.75
2022-08-17T19:50:16.729Z,22.65
2022-08-17T19:52:54.020Z,24.33
2022-08-17T19:55:31.531Z,23.55
2022-08-17T19:57:58.758Z,23.63
2022-08-17T20:00:26.056Z,23.85
2022-08-17T20:02:53.281Z,23.88
2022-08-17T20:05:22.333Z,21.85
2022-08-17T20:08:00.994Z,22.63
2022-08-17T20:10:47.356Z,23.27
2022-08-17T20:13:32.926Z,23.85
2022-08-17T20:16:01.095Z,24.52
2022-08-17T20:18:34.230Z,24.20
2022-08-17T20:21:03.011Z,24.60
2022-08-17T20:23:31.875Z,26.02
2022-08-17T20:26:05.173Z,24.70
2022-08-17T20:28:35.117Z,22.45
2022-08-17T20:31:02.893Z,24.58
2022-08-17T20:33:36.862Z,24.73
2022-08-17T20:36:19.473Z,25.45
2022-08-17T20:38:50.390Z,25.83
2022-08-17T20:41:22.424Z,26.30
2022-08-17T20:43:59.171Z,26.02
2022-08-17T20:46:26.821Z,26.02
2022-08-17T20:48:55.524Z,25.52
2022-08-17T20:51:33.029Z,26.70
2022-08-17T20:54:01.775Z,27.80
2022-08-17T20:56:44.376Z,25.48
2022-08-17T20:59:35.013Z,24.52
2022-08-17T21:02:18.551Z,25.83
2022-08-17T21:04:56.405Z,24.35
2022-08-17T21:07:54.342Z,24.15
2022-08-17T21:10:24.450Z,24.05
2022-08-17T21:12:51.684Z,23.83
2022-08-17T21:15:31.786Z,22.58
2022-08-17T21:17:59.242Z,23.88
2022-08-17T21:20:32.629Z,25.10
2022-08-17T21:23:06.739Z,25.23
2022-08-17T21:25:34.159Z,25.98
2022-08-17T21:28:14.236Z,24.63
2022-08-17T21:30:42.672Z,24.33
2022-08-17T21:33:21.069Z,24.33
2022-08-17T21:35:51.339Z,23.52
2022-08-17T21:38:19.692Z,24.98
2022-08-17T21:40:50.332Z,23.88
2022-08-17T21:43:24.808Z,24.95
2022-08-17T21:45:59.970Z,25.00
2022-08-17T21:48:27.499Z,25.98
2022-08-17T21:51:01.694Z,25.27
2022-08-17T21:53:33.203Z,27.38
2022-08-17T21:56:00.573Z,28.80
2022-08-17T21:58:32.183Z,30.27
2022-08-17T22:01:11.608Z,22.35
2022-08-17T22:03:39.044Z,25.60
2022-08-17T22:06:22.355Z,26.17
2022-08-17T22:08:59.493Z,26.77
2022-08-17T22:11:26.685Z,27.13
2022-08-17T22:14:00.685Z,25.88
2022-08-17T22:16:33.572Z,24.85
2022-08-17T22:19:00.784Z,27.10
2022-08-17T22:21:28.059Z,29.10
2022-08-17T22:24:05.395Z,28.27
2022-08-17T22:26:51.077Z,29.50
2022-08-17T22:29:42.738Z,30.58
2022-08-17T22:32:09.918Z,29.92
2022-08-17T22:34:38.513Z,29.73
2022-08-17T22:37:21.491Z,28.77
2022-08-17T22:39:58.792Z,27.30
2022-08-17T22:42:26.146Z,28.70
2022-08-17T22:44:54.045Z,27.70
2022-08-17T22:47:41.066Z,27.60
2022-08-17T22:50:15.001Z,28.85
2022-08-17T22:53:03.838Z,29.33
2022-08-17T22:55:49.677Z,27.08
2022-08-17T22:58:36.686Z,27.25
2022-08-17T23:01:22.534Z,27.25
2022-08-17T23:03:57.351Z,28.45
2022-08-17T23:06:24.611Z,27.17
2022-08-17T23:08:56.297Z,27.15
2022-08-17T23:11:36.566Z,27.08
2022-08-17T23:14:13.792Z,28.17
2022-08-17T23:16:42.658Z,25.00
2022-08-17T23:19:22.348Z,22.95
2022-08-17T23:21:51.072Z,26.42
2022-08-17T23:24:20.687Z,26.67
2022-08-17T23:26:47.917Z,24.95
2022-08-17T23:29:15.215Z,25.58
2022-08-17T23:31:42.463Z,25.50
2022-08-17T23:34:10.199Z,26.08
2022-08-17T23:36:37.595Z,25.25
2022-08-17T23:39:05.418Z,26.58
2022-08-17T23:41:33.838Z,23.20
2022-08-17T23:44:01.483Z,24.85
2022-08-17T23:46:28.813Z,26.40
2022-08-17T23:48:56.063Z,26.45
2022-08-17T23:51:27.781Z,26.65
2022-08-17T23:53:58.867Z,25.70
2022-08-17T23:56:26.172Z,22.35
2022-08-17T23:58:54.904Z,25.83
